createdAt,value
2017-10-03T00:00:29.837Z,21.17
2017-10-03T00:02:57.289Z,21.77
2017-10-03T00:05:24.756Z,21.57
2017-10-03T00:07:52.223Z,21.63
2017-10-03T00:10:19.680Z,22.77
2017-10-03T00:12:47.167Z,20.67
2017-10-03T00:15:14.609Z,21.40
2017-10-03T00:17:42.078Z,21.40
2017-10-03T00:20:09.530Z,21.23
2017-10-03T00:22:36.994Z,20.57
2017-10-03T00:25:04.460Z,22.50
2017-10-03T00:27:32.701Z,22.67
2017-10-03T00:30:00.149Z,23.07
2017-10-03T00:32:27.626Z,21.50
2017-10-03T00:34:55.073Z,24.20
2017-10-03T00:37:22.526Z,22.50
2017-10-03T00:39:50.003Z,22.53
2017-10-03T00:42:17.446Z,21.87
2017-10-03T00:44:44.908Z,22.97
2017-10-03T00:47:12.358Z,22.33
2017-10-03T00:49:39.826Z,24.00
2017-10-03T00:52:07.282Z,23.30
2017-10-03T00:54:35.512Z,24.30
2017-10-03T00:57:02.966Z,22.77
2017-10-03T00:59:30.438Z,22.80
2017-10-03T01:01:57.898Z,23.07
2017-10-03T01:04:25.361Z,25.00
2017-10-03T01:06:52.823Z,21.97
2017-10-03T01:09:20.282Z,22.03
2017-10-03T01:11:48.514Z,23.87
2017-10-03T01:14:16.798Z,21.43
2017-10-03T01:16:44.247Z,22.37
2017-10-03T01:19:11.705Z,23.30
2017-10-03T01:21:39.165Z,22.40
2017-10-03T01:24:06.650Z,22.33
2017-10-03T01:26:34.242Z,21.87
2017-10-03T01:29:01.697Z,21.80
2017-10-03T01:31:29.171Z,21.50
2017-10-03T01:33:57.413Z,20.73
2017-10-03T01:36:24.881Z,22.00
2017-10-03T01:38:52.326Z,21.40
2017-10-03T01:41:19.785Z,21.53
2017-10-03T01:43:47.253Z,19.97
2017-10-03T01:46:14.710Z,22.63
2017-10-03T01:48:42.160Z,21.40
2017-10-03T01:51:09.626Z,20.10
2017-10-03T01:53:37.082Z,20.20
2017-10-03T01:56:04.562Z,20.30
2017-10-03T01:58:32.030Z,21.50
2017-10-03T02:01:00.274Z,19.17
2017-10-03T02:03:27.720Z,18.70
2017-10-03T02:05:55.202Z,19.47
2017-10-03T02:08:22.669Z,19.10
2017-10-03T02:10:50.129Z,18.30
2017-10-03T02:13:17.586Z,18.97
2017-10-03T02:15:45.040Z,19.40
2017-10-03T02:18:12.502Z,18.50
2017-10-03T02:20:40.738Z,18.10
2017-10-03T02:23:08.203Z,18.50
2017-10-03T02:25:35.657Z,17.70
2017-10-03T02:28:03.877Z,18.70
2017-10-03T02:30:32.099Z,18.87
2017-10-03T02:32:59.562Z,17.00
2017-10-03T02:35:27.010Z,17.00
2017-10-03T02:37:54.466Z,17.60
2017-10-03T02:40:21.913Z,17.27
2017-10-03T02:42:49.377Z,16.10
2017-10-03T02:45:16.829Z,17.07
2017-10-03T02:47:44.297Z,17.57
2017-10-03T02:50:11.758Z,16.93
2017-10-03T02:52:39.206Z,16.70
2017-10-03T02:55:07.443Z,15.83
2017-10-03T02:57:35.653Z,16.27
2017-10-03T03:00:03.114Z,14.83
2017-10-03T03:02:31.334Z,16.23
2017-10-03T03:04:58.789Z,15.70
2017-10-03T03:07:26.237Z,15.60
2017-10-03T03:09:53.696Z,14.63
2017-10-03T03:12:21.154Z,15.30
2017-10-03T03:14:48.612Z,15.73
2017-10-03T03:17:17.572Z,14.40
2017-10-03T03:19:45.039Z,15.97
2017-10-03T03:22:12.511Z,15.07
2017-10-03T03:24:39.949Z,15.30
2017-10-03T03:27:07.414Z,16.03
2017-10-03T03:29:34.881Z,15.20
2017-10-03T03:32:02.346Z,15.03
2017-10-03T03:34:29.814Z,14.13
2017-10-03T03:36:57.276Z,14.70
2017-10-03T03:39:24.749Z,13.43
2017-10-03T03:41:52.204Z,14.53
2017-10-03T03:44:19.664Z,13.97
2017-10-03T03:46:47.890Z,13.90
2017-10-03T03:49:15.341Z,14.43
2017-10-03T03:51:42.803Z,12.50
2017-10-03T03:54:10.258Z,13.20
2017-10-03T03:56:37.725Z,13.37
2017-10-03T03:59:05.179Z,14.00
2017-10-03T04:01:32.637Z,13.30
2017-10-03T04:04:00.095Z,13.07
2017-10-03T04:06:27.570Z,11.87
2017-10-03T04:08:55.025Z,13.50
2017-10-03T04:11:22.482Z,12.70
2017-10-03T04:13:49.933Z,12.47
2017-10-03T04:16:17.406Z,12.60
2017-10-03T04:18:44.854Z,12.50
2017-10-03T04:21:12.322Z,12.97
2017-10-03T04:23:39.792Z,11.60
2017-10-03T04:26:07.303Z,12.40
2017-10-03T04:28:34.757Z,11.90
2017-10-03T04:31:02.223Z,12.20
2017-10-03T04:33:29.697Z,12.70
2017-10-03T04:35:57.177Z,12.27
2017-10-03T04:38:25.409Z,11.00
2017-10-03T04:40:52.896Z,11.47
2017-10-03T04:43:20.389Z,11.50
2017-10-03T04:45:48.602Z,12.27
2017-10-03T04:48:16.089Z,11.53
2017-10-03T04:50:45.054Z,10.30
2017-10-03T04:53:13.277Z,10.70
2017-10-03T04:55:40.726Z,11.33
2017-10-03T04:58:08.189Z,10.33
2017-10-03T05:00:35.660Z,11.23
2017-10-03T05:03:03.143Z,9.77
2017-10-03T05:05:30.614Z,10.40
2017-10-03T05:07:58.088Z,9.50
2017-10-03T05:10:25.558Z,10.70
2017-10-03T05:12:53.016Z,10.33
2017-10-03T05:15:20.479Z,10.27
2017-10-03T05:17:47.950Z,10.03
2017-10-03T05:20:16.203Z,10.23
2017-10-03T05:22:43.643Z,9.97
2017-10-03T05:25:11.125Z,10.10
2017-10-03T05:27:38.578Z,9.87
2017-10-03T05:30:06.042Z,9.60
2017-10-03T05:32:33.499Z,10.63
2017-10-03T05:35:01.053Z,9.10
2017-10-03T05:37:28.512Z,10.00
2017-10-03T05:39:56.014Z,9.60
2017-10-03T05:42:23.453Z,9.43
2017-10-03T05:44:50.909Z,8.70
2017-10-03T05:47:18.359Z,8.60
2017-10-03T05:49:46.602Z,9.10
2017-10-03T05:52:14.062Z,8.67
2017-10-03T05:54:41.509Z,9.10
2017-10-03T05:57:08.991Z,8.90
2017-10-03T05:59:36.442Z,9.07
2017-10-03T06:02:03.903Z,8.50
2017-10-03T06:04:31.349Z,8.97
2017-10-03T06:06:59.570Z,8.30
2017-10-03T06:09:27.009Z,8.77
2017-10-03T06:11:55.233Z,8.20
2017-10-03T06:14:22.682Z,8.30
2017-10-03T06:16:50.149Z,8.73
2017-10-03T06:19:17.599Z,8.03
2017-10-03T06:21:45.825Z,8.50
2017-10-03T06:24:14.054Z,7.90
2017-10-03T06:26:41.510Z,8.73
2017-10-03T06:29:08.969Z,8.10
2017-10-03T06:31:36.426Z,7.60
2017-10-03T06:34:03.899Z,7.23
2017-10-03T06:36:31.356Z,7.57
2017-10-03T06:38:58.806Z,8.10
2017-10-03T06:41:26.366Z,8.20
2017-10-03T06:43:53.822Z,7.37
2017-10-03T06:46:21.309Z,7.13
2017-10-03T06:48:48.769Z,7.00
2017-10-03T06:51:16.281Z,7.50
2017-10-03T06:53:43.730Z,7.70
2017-10-03T06:56:11.197Z,7.87
2017-10-03T06:58:38.674Z,8.03
2017-10-03T07:01:06.133Z,8.13
2017-10-03T07:03:33.593Z,7.10
2017-10-03T07:06:01.041Z,7.33
2017-10-03T07:08:28.500Z,7.93
2017-10-03T07:10:55.949Z,7.50
2017-10-03T07:13:23.467Z,7.97
2017-10-03T07:15:51.690Z,7.63
2017-10-03T07:18:19.148Z,7.53
2017-10-03T07:20:46.591Z,7.70
2017-10-03T07:23:14.057Z,7.83
2017-10-03T07:25:41.516Z,7.50
2017-10-03T07:28:08.986Z,6.80
2017-10-03T07:30:36.449Z,7.50
2017-10-03T07:33:03.905Z,7.33
2017-10-03T07:35:31.370Z,6.97
2017-10-03T07:37:58.843Z,6.37
2017-10-03T07:40:27.061Z,7.40
2017-10-03T07:42:55.310Z,7.00
2017-10-03T07:45:22.757Z,7.30
2017-10-03T07:47:50.982Z,6.50
2017-10-03T07:50:18.441Z,7.10
2017-10-03T07:52:45.884Z,7.30
2017-10-03T07:55:13.340Z,7.27
2017-10-03T07:57:40.794Z,6.23
2017-10-03T08:00:08.255Z,6.70
2017-10-03T08:02:35.715Z,6.73
2017-10-03T08:05:03.182Z,6.70
2017-10-03T08:07:30.635Z,6.80
2017-10-03T08:09:58.109Z,7.10
2017-10-03T08:12:25.566Z,6.70
2017-10-03T08:14:53.017Z,5.70
2017-10-03T08:17:20.457Z,6.07
2017-10-03T08:19:47.917Z,5.40
2017-10-03T08:22:16.150Z,5.90
2017-10-03T08:24:44.393Z,6.50
2017-10-03T08:27:12.614Z,4.90
2017-10-03T08:29:40.066Z,5.70
2017-10-03T08:32:08.282Z,5.43
2017-10-03T08:34:35.729Z,5.53
2017-10-03T08:37:03.199Z,5.23
2017-10-03T08:39:30.642Z,5.37
2017-10-03T08:41:58.098Z,5.37
2017-10-03T08:44:25.559Z,5.00
2017-10-03T08:46:53.017Z,4.90
2017-10-03T08:49:20.458Z,4.70
2017-10-03T08:51:47.906Z,4.87
2017-10-03T08:54:15.366Z,4.33
2017-10-03T08:56:42.817Z,4.93
2017-10-03T08:59:11.027Z,4.70
2017-10-03T09:01:38.473Z,4.83
2017-10-03T09:04:05.934Z,4.80
2017-10-03T09:06:33.381Z,4.60
2017-10-03T09:09:00.871Z,4.20
2017-10-03T09:11:28.356Z,4.20
2017-10-03T09:13:56.575Z,4.27
2017-10-03T09:16:24.034Z,4.00
2017-10-03T09:18:51.495Z,4.93
2017-10-03T09:21:18.946Z,4.20
2017-10-03T09:23:46.390Z,4.03
2017-10-03T09:26:13.917Z,4.40
2017-10-03T09:28:42.141Z,4.27
2017-10-03T09:31:09.606Z,4.73
2017-10-03T09:33:37.053Z,3.77
2017-10-03T09:36:04.509Z,4.30
2017-10-03T09:38:31.990Z,4.20
2017-10-03T09:40:59.473Z,3.70
2017-10-03T09:43:26.971Z,3.53
2017-10-03T09:45:54.417Z,3.30
2017-10-03T09:48:21.873Z,3.57
2017-10-03T09:50:49.330Z,3.30
2017-10-03T09:53:16.777Z,3.60
2017-10-03T09:55:44.990Z,3.40
2017-10-03T09:58:13.218Z,3.13
2017-10-03T10:00:41.432Z,3.80
2017-10-03T10:03:08.881Z,3.67
2017-10-03T10:05:37.095Z,3.10
2017-10-03T10:08:04.570Z,3.30
2017-10-03T10:10:32.024Z,3.60
2017-10-03T10:12:59.497Z,3.30
2017-10-03T10:15:26.978Z,3.13
2017-10-03T10:17:54.443Z,3.30
2017-10-03T10:20:21.894Z,3.33
2017-10-03T10:22:50.129Z,3.30
2017-10-03T10:25:17.590Z,2.90
2017-10-03T10:27:45.043Z,3.50
2017-10-03T10:30:12.512Z,3.13
2017-10-03T10:32:39.966Z,2.73
2017-10-03T10:35:07.423Z,2.67
2017-10-03T10:37:34.873Z,2.97
2017-10-03T10:40:02.339Z,3.17
2017-10-03T10:42:30.622Z,2.87
2017-10-03T10:44:58.852Z,2.80
2017-10-03T10:47:26.301Z,2.43
2017-10-03T10:49:53.746Z,2.37
2017-10-03T10:52:21.190Z,2.57
2017-10-03T10:54:48.658Z,4.20
2017-10-03T10:57:16.125Z,4.60
2017-10-03T10:59:43.592Z,3.37
2017-10-03T11:02:11.053Z,3.17
2017-10-03T11:04:38.518Z,3.07
2017-10-03T11:07:05.973Z,3.50
2017-10-03T11:09:33.426Z,3.37
2017-10-03T11:12:00.885Z,3.17
2017-10-03T11:14:28.346Z,3.20
2017-10-03T11:16:55.800Z,3.80
2017-10-03T11:19:23.258Z,3.67
2017-10-03T11:21:50.725Z,3.50
2017-10-03T11:24:29.775Z,3.40
2017-10-03T11:26:57.245Z,2.90
2017-10-03T11:29:25.465Z,3.27
2017-10-03T11:31:52.949Z,2.80
2017-10-03T11:34:20.420Z,2.83
2017-10-03T11:36:47.882Z,2.67
2017-10-03T11:39:15.341Z,3.30
2017-10-03T11:41:42.805Z,3.20
2017-10-03T11:44:11.029Z,3.30
2017-10-03T11:46:38.506Z,3.40
2017-10-03T11:49:05.961Z,3.10
2017-10-03T11:51:33.433Z,3.57
2017-10-03T11:54:00.913Z,3.73
2017-10-03T11:56:28.362Z,3.70
2017-10-03T11:58:55.805Z,2.87
2017-10-03T12:01:23.286Z,3.03
2017-10-03T12:03:51.504Z,2.60
2017-10-03T12:06:18.962Z,2.70
2017-10-03T12:08:46.529Z,2.90
2017-10-03T12:11:13.999Z,2.63
2017-10-03T12:13:41.473Z,3.00
2017-10-03T12:16:08.924Z,2.33
2017-10-03T12:18:36.398Z,3.00
2017-10-03T12:21:03.844Z,3.70
2017-10-03T12:23:31.306Z,2.60
2017-10-03T12:25:58.758Z,2.20
2017-10-03T12:28:26.213Z,2.53
2017-10-03T12:30:53.678Z,2.30
2017-10-03T12:33:21.245Z,2.50
2017-10-03T12:35:49.486Z,2.50
2017-10-03T12:38:16.933Z,2.30
2017-10-03T12:40:44.409Z,2.07
2017-10-03T12:43:11.860Z,2.60
2017-10-03T12:45:39.326Z,1.83
2017-10-03T12:48:06.989Z,2.50
2017-10-03T12:50:35.293Z,2.47
2017-10-03T12:53:02.801Z,2.53
2017-10-03T12:55:30.270Z,2.20
2017-10-03T12:57:57.751Z,2.20
2017-10-03T13:00:25.206Z,2.33
2017-10-03T13:02:52.649Z,2.27
2017-10-03T13:05:20.114Z,2.33
2017-10-03T13:07:47.577Z,2.17
2017-10-03T13:10:15.025Z,1.80
2017-10-03T13:12:42.474Z,2.20
2017-10-03T13:15:09.932Z,2.23
2017-10-03T13:17:37.402Z,2.40
2017-10-03T13:20:04.896Z,2.60
2017-10-03T13:22:33.141Z,3.20
2017-10-03T13:25:00.635Z,2.80
2017-10-03T13:27:28.873Z,2.90
2017-10-03T13:29:56.365Z,3.03
2017-10-03T13:32:24.584Z,3.20
2017-10-03T13:34:52.046Z,2.80
2017-10-03T13:37:19.500Z,3.87
2017-10-03T13:39:46.949Z,3.80
2017-10-03T13:42:14.409Z,3.97
2017-10-03T13:44:41.874Z,4.30
2017-10-03T13:47:09.335Z,4.50
2017-10-03T13:49:36.892Z,4.40
2017-10-03T13:52:04.337Z,3.97
2017-10-03T13:54:31.831Z,4.03
2017-10-03T13:56:59.283Z,4.63
2017-10-03T13:59:26.738Z,4.70
2017-10-03T14:01:54.198Z,4.90
2017-10-03T14:04:21.654Z,5.70
2017-10-03T14:06:49.114Z,5.13
2017-10-03T14:09:16.568Z,5.70
2017-10-03T14:11:44.033Z,5.23
2017-10-03T14:14:11.487Z,5.37
2017-10-03T14:16:38.943Z,4.70
2017-10-03T14:19:06.391Z,5.10
2017-10-03T14:21:33.850Z,4.60
2017-10-03T14:24:01.308Z,4.50
2017-10-03T14:26:28.770Z,4.87
2017-10-03T14:28:56.234Z,4.40
2017-10-03T14:31:23.703Z,4.97
2017-10-03T14:33:51.945Z,5.40
2017-10-03T14:36:19.401Z,6.07
2017-10-03T14:38:46.853Z,5.30
2017-10-03T14:41:14.352Z,4.97
2017-10-03T14:43:41.802Z,5.70
2017-10-03T14:46:09.269Z,5.63
2017-10-03T14:48:37.485Z,5.87
2017-10-03T14:51:04.941Z,5.57
2017-10-03T14:53:32.409Z,5.43
2017-10-03T14:55:59.857Z,5.07
2017-10-03T14:58:27.318Z,4.30
2017-10-03T15:00:54.769Z,4.17
2017-10-03T15:03:22.217Z,4.43
2017-10-03T15:05:49.672Z,5.20
2017-10-03T15:08:17.129Z,7.57
2017-10-03T15:10:45.481Z,13.63
2017-10-03T15:13:13.706Z,15.97
2017-10-03T15:15:41.161Z,14.03
2017-10-03T15:18:08.618Z,13.43
2017-10-03T15:20:36.078Z,12.97
2017-10-03T15:23:03.570Z,11.73
2017-10-03T15:25:31.010Z,10.83
2017-10-03T15:27:58.462Z,10.40
2017-10-03T15:30:25.917Z,10.87
2017-10-03T15:32:53.377Z,8.40
2017-10-03T15:35:20.834Z,8.17
2017-10-03T15:37:48.293Z,7.63
2017-10-03T15:40:15.772Z,6.73
2017-10-03T15:42:43.217Z,7.13
2017-10-03T15:45:10.677Z,8.80
2017-10-03T15:47:38.133Z,9.97
2017-10-03T15:50:05.596Z,10.20
2017-10-03T15:52:33.054Z,10.63
2017-10-03T15:55:00.510Z,9.90
2017-10-03T15:57:28.729Z,10.60
2017-10-03T15:59:56.957Z,10.17
2017-10-03T16:02:24.410Z,9.97
2017-10-03T16:04:52.095Z,9.67
2017-10-03T16:07:19.541Z,10.27
2017-10-03T16:09:47.001Z,10.13
2017-10-03T16:12:14.453Z,9.13
2017-10-03T16:14:41.914Z,8.33
2017-10-03T16:17:10.139Z,7.70
2017-10-03T16:19:38.405Z,9.60
2017-10-03T16:22:06.658Z,8.77
2017-10-03T16:24:34.913Z,7.90
2017-10-03T16:27:02.370Z,8.50
2017-10-03T16:29:29.814Z,8.00
2017-10-03T16:31:57.285Z,7.80
2017-10-03T16:34:24.732Z,7.30
2017-10-03T16:36:52.182Z,7.60
2017-10-03T16:39:19.638Z,7.07
2017-10-03T16:41:47.110Z,7.33
2017-10-03T16:44:14.557Z,6.80
2017-10-03T16:46:42.778Z,7.73
2017-10-03T16:49:11.000Z,7.20
2017-10-03T16:51:38.471Z,6.10
2017-10-03T16:54:05.940Z,6.00
2017-10-03T16:56:33.399Z,6.10
2017-10-03T16:59:00.853Z,6.77
2017-10-03T17:01:28.314Z,6.63
2017-10-03T17:03:55.763Z,6.03
2017-10-03T17:06:23.221Z,6.77
2017-10-03T17:08:50.673Z,5.70
2017-10-03T17:11:18.133Z,5.40
2017-10-03T17:13:45.593Z,4.03
2017-10-03T17:16:13.037Z,3.50
2017-10-03T17:18:40.494Z,3.60
2017-10-03T17:21:07.966Z,3.10
2017-10-03T17:23:35.445Z,2.80
2017-10-03T17:26:02.889Z,2.70
2017-10-03T17:28:30.346Z,2.53
2017-10-03T17:30:57.818Z,2.93
2017-10-03T17:33:25.274Z,2.53
2017-10-03T17:35:52.742Z,2.80
2017-10-03T17:38:20.275Z,2.53
2017-10-03T17:40:47.778Z,2.27
2017-10-03T17:43:15.251Z,2.30
2017-10-03T17:45:42.722Z,2.47
2017-10-03T17:51:02.909Z,2.10
2017-10-03T17:53:30.390Z,2.60
2017-10-03T17:55:57.965Z,2.50
2017-10-03T17:58:25.438Z,3.77
2017-10-03T18:00:52.914Z,4.07
2017-10-03T18:03:20.378Z,3.00
2017-10-03T18:05:47.833Z,3.53
2017-10-03T18:08:16.098Z,3.00
2017-10-03T18:10:44.330Z,2.93
2017-10-03T18:13:11.786Z,3.30
2017-10-03T18:15:39.281Z,3.73
2017-10-03T18:18:06.734Z,3.40
2017-10-03T18:20:34.194Z,3.63
2017-10-03T18:23:01.666Z,3.90
2017-10-03T18:25:29.145Z,3.20
2017-10-03T18:27:57.509Z,3.50
2017-10-03T18:30:26.677Z,2.93
2017-10-03T18:32:54.172Z,3.40
2017-10-03T18:35:21.713Z,2.90
2017-10-03T18:37:49.963Z,3.20
2017-10-03T18:40:18.171Z,3.20
2017-10-03T18:42:45.648Z,3.50
2017-10-03T18:45:13.102Z,3.17
2017-10-03T18:47:40.553Z,3.93
2017-10-03T18:50:08.793Z,2.87
2017-10-03T18:52:36.254Z,3.67
2017-10-03T18:55:04.491Z,4.00
2017-10-03T18:57:31.953Z,2.70
2017-10-03T18:59:59.446Z,3.43
2017-10-03T19:02:28.402Z,3.10
2017-10-03T19:04:55.869Z,3.37
2017-10-03T19:07:23.314Z,3.20
2017-10-03T19:09:51.553Z,3.13
2017-10-03T19:12:18.998Z,3.20
2017-10-03T19:14:46.445Z,3.13
2017-10-03T19:17:13.910Z,2.77
2017-10-03T19:19:42.142Z,2.87
2017-10-03T19:22:09.601Z,3.33
2017-10-03T19:24:37.049Z,3.50
2017-10-03T19:27:05.298Z,3.17
2017-10-03T19:29:33.529Z,2.80
2017-10-03T19:32:01.001Z,3.17
2017-10-03T19:34:28.482Z,3.07
2017-10-03T19:36:56.717Z,3.10
2017-10-03T19:39:24.173Z,3.50
2017-10-03T19:41:51.774Z,3.50
2017-10-03T19:44:19.238Z,2.93
2017-10-03T19:46:47.505Z,2.90
2017-10-03T19:49:15.959Z,2.80
2017-10-03T19:51:43.433Z,3.97
2017-10-03T19:54:10.889Z,3.73
2017-10-03T19:56:38.354Z,3.20
2017-10-03T19:59:06.585Z,3.27
2017-10-03T20:01:34.059Z,2.63
2017-10-03T20:04:01.542Z,4.20
2017-10-03T20:06:29.005Z,2.93
2017-10-03T20:08:56.531Z,3.80
2017-10-03T20:11:23.991Z,3.30
2017-10-03T20:13:51.478Z,3.40
2017-10-03T20:16:19.703Z,3.77
2017-10-03T20:18:47.178Z,3.70
2017-10-03T20:21:14.670Z,4.03
2017-10-03T20:23:42.982Z,3.13
2017-10-03T20:26:10.413Z,3.10
2017-10-03T20:28:38.652Z,3.00
2017-10-03T20:31:06.239Z,3.53
2017-10-03T20:33:33.745Z,3.00
2017-10-03T20:36:01.253Z,3.20
2017-10-03T20:38:29.485Z,3.40
2017-10-03T20:40:56.941Z,3.83
2017-10-03T20:43:24.418Z,3.63
2017-10-03T20:45:51.900Z,3.70
2017-10-03T20:48:19.342Z,3.53
2017-10-03T20:50:46.817Z,3.47
2017-10-03T20:53:14.300Z,3.60
2017-10-03T20:55:42.577Z,3.77
2017-10-03T20:58:10.025Z,3.70
2017-10-03T21:00:37.489Z,3.17
2017-10-03T21:03:05.059Z,3.17
2017-10-03T21:05:32.610Z,3.60
2017-10-03T21:08:00.833Z,4.40
2017-10-03T21:10:28.297Z,3.77
2017-10-03T21:12:55.765Z,3.93
2017-10-03T21:15:23.222Z,3.73
2017-10-03T21:17:50.669Z,3.80
2017-10-03T21:20:18.150Z,3.60
2017-10-03T21:22:46.445Z,3.17
2017-10-03T21:25:14.990Z,3.93
2017-10-03T21:27:42.495Z,3.77
2017-10-03T21:30:10.853Z,3.90
2017-10-03T21:32:40.350Z,3.47
2017-10-03T21:35:08.558Z,4.03
2017-10-03T21:37:36.034Z,3.57
2017-10-03T21:40:03.478Z,3.30
2017-10-03T21:42:42.692Z,4.33
2017-10-03T21:45:10.152Z,3.10
2017-10-03T21:47:37.610Z,3.27
2017-10-03T21:50:05.850Z,2.90
2017-10-03T21:52:33.305Z,3.30
2017-10-03T21:55:00.772Z,2.70
2017-10-03T21:57:29.742Z,3.30
2017-10-03T21:59:57.202Z,3.17
2017-10-03T22:02:24.675Z,3.70
2017-10-03T22:04:52.898Z,3.40
2017-10-03T22:07:21.131Z,3.10
2017-10-03T22:09:48.599Z,3.37
2017-10-03T22:12:16.849Z,3.10
2017-10-03T22:14:44.321Z,3.20
2017-10-03T22:17:11.769Z,2.77
2017-10-03T22:19:39.257Z,3.10
2017-10-03T22:22:07.521Z,3.30
2017-10-03T22:24:35.768Z,3.30
2017-10-03T22:27:03.210Z,2.60
2017-10-03T22:29:32.592Z,3.00
2017-10-03T22:32:00.035Z,3.57
2017-10-03T22:34:27.575Z,3.33
2017-10-03T22:36:55.090Z,2.97
2017-10-03T22:39:22.658Z,2.80
2017-10-03T22:41:50.142Z,3.73
2017-10-03T22:44:17.601Z,2.83
2017-10-03T22:46:45.049Z,3.20
2017-10-03T22:49:12.512Z,2.90
2017-10-03T22:51:45.709Z,2.60
2017-10-03T22:54:13.153Z,2.40
2017-10-03T22:56:42.114Z,3.07
2017-10-03T22:59:09.618Z,3.43
2017-10-03T23:01:37.102Z,3.40
2017-10-03T23:04:05.345Z,2.70
2017-10-03T23:06:32.809Z,2.67
2017-10-03T23:09:01.085Z,2.90
2017-10-03T23:11:28.538Z,2.87
2017-10-03T23:13:56.016Z,3.33
2017-10-03T23:16:24.262Z,3.30
2017-10-03T23:18:51.749Z,3.60
2017-10-03T23:21:19.974Z,2.97
2017-10-03T23:23:47.429Z,2.80
2017-10-03T23:26:14.909Z,3.77
2017-10-03T23:28:42.366Z,2.90
2017-10-03T23:31:09.830Z,2.60
2017-10-03T23:33:37.282Z,3.00
2017-10-03T23:36:04.741Z,2.77
2017-10-03T23:38:32.208Z,2.37
2017-10-03T23:41:03.422Z,2.90
2017-10-03T23:43:30.906Z,3.03
2017-10-03T23:45:58.377Z,2.87
2017-10-03T23:48:25.837Z,2.57
2017-10-03T23:50:53.307Z,3.43
2017-10-03T23:53:21.509Z,3.50
2017-10-03T23:55:48.985Z,3.33
2017-10-03T23:58:16.424Z,2.70
